Time;durP1;ratioP1;P1;durP2;ratioP2;P2;SDS_P1;SDS_P2;PMS_P1;PMS_P2;Temp;Humidity;BMP_temperature;BMP_pressure;BME280_temperature;BME280_humidity;BME280_pressure;Samples;Min_cycle;Max_cycle;Signal;HPM_P1;HPM_P2
2023/06/10 00:01:10;;;;;;;;;;;;;;;12.32;93.27;101888.91;5027784;28;19925;-76
2023/06/10 00:03:36;;;;;;;;;;;;;;;12.33;93.07;101897.78;5027987;28;19925;-74
2023/06/10 00:06:01;;;;;;;;;;;;;;;12.55;91.12;101894.00;4998068;28;19917;-75
2023/06/10 00:08:28;;;;;;;;;;;;;;;12.32;92.10;101891.59;5021799;28;19922;-73
2023/06/10 00:10:54;;;;;;;;;;;;;;;12.29;92.00;101892.13;4992541;28;19929;-74
2023/06/10 00:33:10;;;;;;;;;;;;;;;11.73;90.94;101889.56;5029639;28;19927;-74
2023/06/10 00:35:35;;;;;;;;;;;;;;;11.56;90.96;101886.13;5005440;28;19921;-74
2023/06/10 00:38:01;;;;;;;;;;;;;;;11.54;91.85;101890.94;5013045;28;19921;-74
2023/06/10 00:40:26;;;;;;;;;;;;;;;11.60;92.07;101895.31;5012605;28;20641;-73
2023/06/10 00:42:52;;;;;;;;;;;;;;;11.62;91.97;101889.69;5025456;28;19976;-74
2023/06/10 00:45:20;;;;;;;;;;;;;;;11.55;92.03;101889.06;5007773;28;20461;-75
2023/06/10 00:47:46;;;;;;;;;;;;;;;11.56;91.84;101888.78;4998891;28;19925;-75
2023/06/10 00:50:12;;;;;;;;;;;;;;;11.80;90.90;101888.56;5004348;28;19922;-74
2023/06/10 00:52:38;;;;;;;;;;;;;;;11.72;91.15;101897.88;5009404;28;19928;-74
2023/06/10 00:55:03;;;;;;;;;;;;;;;11.82;90.60;101897.22;5022650;28;19932;-73
2023/06/10 00:57:29;;;;;;;;;;;;;;;11.71;90.51;101891.66;4989769;28;20338;-74
2023/06/10 00:59:57;;;;;;;;;;;;;;;11.57;90.82;101895.78;5005296;28;19929;-76
2023/06/10 01:02:22;;;;;;;;;;;;;;;11.51;91.09;101896.75;5012645;28;19935;-76
2023/06/10 01:04:49;;;;;;;;;;;;;;;11.41;90.70;101896.63;5004424;28;19920;-74
2023/06/10 01:07:19;;;;;;;;;;;;;;;11.34;91.09;101898.69;4994107;28;19924;-75
2023/06/10 01:09:51;;;;;;;;;;;;;;;11.29;91.04;101896.72;5003982;28;19925;-74
2023/06/10 01:12:20;;;;;;;;;;;;;;;11.23;91.36;101899.59;5007012;28;20396;-75
2023/06/10 01:14:52;;;;;;;;;;;;;;;11.14;91.48;101904.56;5019226;28;19921;-74
2023/06/10 01:17:17;;;;;;;;;;;;;;;11.05;91.42;101904.16;5006388;28;20370;-72
2023/06/10 01:19:44;;;;;;;;;;;;;;;11.02;91.47;101898.47;5018668;28;19928;-74
2023/06/10 01:22:10;;;;;;;;;;;;;;;10.93;91.73;101906.09;4990441;28;19928;-74
2023/06/10 01:24:36;;;;;;;;;;;;;;;11.06;91.41;101910.34;5028348;28;19928;-73
2023/06/10 01:27:06;;;;;;;;;;;;;;;11.06;90.95;101913.00;5025925;28;20314;-74
2023/06/10 01:29:40;;;;;;;;;;;;;;;10.88;91.39;101911.38;5025940;28;19925;-73
2023/06/10 01:32:17;;;;;;;;;;;;;;;10.84;91.54;101904.91;5023785;28;19921;-73
2023/06/10 01:34:43;;;;;;;;;;;;;;;10.80;91.99;101898.38;5026694;28;19936;-75
2023/06/10 01:37:10;;;;;;;;;;;;;;;10.78;91.66;101903.19;5027346;28;20011;-71
2023/06/10 01:39:39;;;;;;;;;;;;;;;10.79;91.47;101910.16;5025328;28;19964;-74
2023/06/10 01:42:06;;;;;;;;;;;;;;;10.66;91.57;101906.72;5025650;28;19921;-75
2023/06/10 01:44:31;;;;;;;;;;;;;;;10.67;91.70;101907.53;5028462;28;20352;-73
2023/06/10 01:46:57;;;;;;;;;;;;;;;10.59;91.63;101911.44;5027828;28;19925;-74
2023/06/10 01:49:24;;;;;;;;;;;;;;;10.61;91.67;101914.66;4996211;28;19963;-74
2023/06/10 01:51:49;;;;;;;;;;;;;;;10.75;91.53;101903.66;5029904;28;20374;-75
2023/06/10 01:54:15;;;;;;;;;;;;;;;10.73;90.94;101909.25;5013990;28;19967;-73
2023/06/10 01:56:40;;;;;;;;;;;;;;;10.69;91.01;101904.63;5011313;28;20012;-75
2023/06/10 01:59:06;;;;;;;;;;;;;;;10.53;91.63;101896.31;5029326;28;19956;-75
2023/06/10 02:01:32;;;;;;;;;;;;;;;10.52;91.53;101894.69;5030435;28;20375;-75
2023/06/10 02:03:57;;;;;;;;;;;;;;;10.52;91.67;101900.06;5029280;28;19917;-73
2023/06/10 02:06:23;;;;;;;;;;;;;;;10.47;91.77;101896.47;5012094;28;19960;-73
2023/06/10 02:08:49;;;;;;;;;;;;;;;10.63;91.14;101901.88;5009423;28;20545;-73
2023/06/10 02:11:14;;;;;;;;;;;;;;;10.84;90.32;101897.66;5027613;28;20390;-74
2023/06/10 02:13:40;;;;;;;;;;;;;;;10.74;90.74;101900.16;5027589;28;20303;-78
2023/06/10 02:16:05;;;;;;;;;;;;;;;10.59;90.76;101895.34;4997070;28;20307;-74
2023/06/10 02:18:31;;;;;;;;;;;;;;;10.69;90.67;101894.72;5029822;28;19964;-74
2023/06/10 02:20:56;;;;;;;;;;;;;;;10.68;90.56;101894.97;5029447;28;19921;-73
2023/06/10 02:23:22;;;;;;;;;;;;;;;10.75;90.24;101900.97;5029417;28;20287;-74
2023/06/10 02:25:48;;;;;;;;;;;;;;;10.75;89.94;101895.59;5012833;28;19924;-73
2023/06/10 02:28:13;;;;;;;;;;;;;;;10.62;90.34;101896.72;5027626;28;19921;-73
2023/06/10 02:30:42;;;;;;;;;;;;;;;10.50;90.53;101901.31;5010533;28;19925;-75
2023/06/10 02:33:11;;;;;;;;;;;;;;;10.47;91.17;101899.97;5027257;28;19921;-76
2023/06/10 02:35:40;;;;;;;;;;;;;;;10.47;90.96;101897.28;5012210;28;20279;-75
2023/06/10 02:38:06;;;;;;;;;;;;;;;10.38;91.22;101904.09;5026643;28;19917;-74
2023/06/10 02:40:33;;;;;;;;;;;;;;;10.33;91.34;101906.66;5013364;28;20273;-75
2023/06/10 02:42:58;;;;;;;;;;;;;;;10.35;91.73;101899.19;5015478;28;19921;-75
2023/06/10 02:45:25;;;;;;;;;;;;;;;10.41;91.10;101903.59;5029963;28;19917;-75
2023/06/10 02:47:51;;;;;;;;;;;;;;;10.43;91.09;101914.06;4994161;28;19928;-76
2023/06/10 02:50:17;;;;;;;;;;;;;;;10.35;91.22;101908.03;5009357;28;19976;-74
2023/06/10 02:52:56;;;;;;;;;;;;;;;10.58;90.35;101909.00;5009546;28;19975;-76
2023/06/10 02:55:22;;;;;;;;;;;;;;;10.58;90.16;101909.81;4993444;28;19928;-76
2023/06/10 02:57:54;;;;;;;;;;;;;;;10.56;89.93;101906.53;4995188;28;19921;-75
2023/06/10 03:00:21;;;;;;;;;;;;;;;10.61;89.54;101916.53;5029648;28;19928;-75
2023/06/10 03:02:48;;;;;;;;;;;;;;;10.42;90.38;101913.25;5000140;28;19925;-74
2023/06/10 03:05:16;;;;;;;;;;;;;;;10.44;90.43;101918.38;5026050;28;20405;-74
2023/06/10 03:07:47;;;;;;;;;;;;;;;10.40;90.70;101912.69;5028182;28;19924;-74
2023/06/10 03:10:14;;;;;;;;;;;;;;;10.23;90.84;101907.28;5009527;28;20015;-72
2023/06/10 03:12:40;;;;;;;;;;;;;;;10.19;91.05;101916.00;5010458;28;19925;-74
2023/06/10 03:15:06;;;;;;;;;;;;;;;10.16;91.31;101919.13;5026663;28;21152;-75
2023/06/10 03:17:32;;;;;;;;;;;;;;;10.19;91.41;101916.00;5010393;28;19928;-74
2023/06/10 03:19:58;;;;;;;;;;;;;;;10.19;91.19;101922.16;5009564;28;19928;-76
2023/06/10 03:22:23;;;;;;;;;;;;;;;10.18;91.32;101915.19;5009546;28;19975;-75
2023/06/10 03:25:04;;;;;;;;;;;;;;;10.11;91.57;101914.50;5010503;28;20298;-73
2023/06/10 03:27:31;;;;;;;;;;;;;;;10.25;91.22;101917.75;5025501;28;19929;-75
2023/06/10 03:29:59;;;;;;;;;;;;;;;10.42;91.18;101913.25;5027264;28;19931;-75
2023/06/10 03:32:25;;;;;;;;;;;;;;;10.34;91.08;101908.28;5009584;28;19975;-77
2023/06/10 03:34:57;;;;;;;;;;;;;;;10.38;90.82;101901.41;5009642;28;19947;-75
2023/06/10 03:37:25;;;;;;;;;;;;;;;10.56;90.78;101905.72;5007207;28;19917;-76
2023/06/10 03:39:50;;;;;;;;;;;;;;;10.41;90.74;101908.13;5010935;28;19925;-75
2023/06/10 03:42:16;;;;;;;;;;;;;;;10.43;90.66;101912.22;5011229;28;20405;-74
2023/06/10 03:44:42;;;;;;;;;;;;;;;10.49;90.58;101913.09;5010123;28;19924;-76
2023/06/10 03:47:07;;;;;;;;;;;;;;;10.49;90.67;101910.41;4992389;28;20290;-75
2023/06/10 03:49:34;;;;;;;;;;;;;;;10.54;90.44;101919.38;5010919;28;20001;-74
2023/06/10 03:52:01;;;;;;;;;;;;;;;10.61;90.25;101914.66;4994251;28;19925;-73
2023/06/10 03:54:26;;;;;;;;;;;;;;;10.58;90.49;101911.69;5010487;28;19917;-73
2023/06/10 03:56:52;;;;;;;;;;;;;;;10.65;90.07;101918.50;5010445;28;19921;-75
2023/06/10 03:59:18;;;;;;;;;;;;;;;10.73;90.27;101921.84;5010715;28;19921;-74
2023/06/10 04:01:43;;;;;;;;;;;;;;;10.97;88.93;101919.81;5011200;28;19925;-75
2023/06/10 04:04:10;;;;;;;;;;;;;;;11.09;88.24;101918.69;4992985;28;19917;-75
2023/06/10 04:06:36;;;;;;;;;;;;;;;11.10;88.26;101914.94;5025873;28;19921;-75
2023/06/10 04:09:03;;;;;;;;;;;;;;;11.23;87.91;101904.94;4988212;28;19959;-74
2023/06/10 04:11:28;;;;;;;;;;;;;;;11.38;86.83;101915.88;5027711;28;19987;-75
2023/06/10 04:13:56;;;;;;;;;;;;;;;11.37;87.04;101911.59;5011176;28;19968;-75
2023/06/10 04:16:23;;;;;;;;;;;;;;;11.40;87.33;101900.38;5007626;28;20287;-74
2023/06/10 04:18:49;;;;;;;;;;;;;;;11.60;85.87;101900.66;4993640;28;19921;-73
2023/06/10 04:21:16;;;;;;;;;;;;;;;11.53;86.77;101909.97;5007918;28;20572;-74
2023/06/10 04:23:42;;;;;;;;;;;;;;;11.63;86.19;101896.66;4990708;28;19922;-74
2023/06/10 04:26:10;;;;;;;;;;;;;;;11.81;85.72;101907.13;5009883;28;19925;-74
2023/06/10 04:28:36;;;;;;;;;;;;;;;11.85;84.80;101902.06;5028579;28;19917;-73
2023/06/10 04:31:03;;;;;;;;;;;;;;;11.93;85.10;101910.53;5006735;28;19933;-75
2023/06/10 04:33:33;;;;;;;;;;;;;;;12.14;83.84;101900.81;4995627;28;19921;-77
2023/06/10 04:36:01;;;;;;;;;;;;;;;12.20;83.41;101902.50;5002890;28;19921;-74
2023/06/10 04:38:30;;;;;;;;;;;;;;;12.20;83.45;101905.19;5020501;28;20299;-74
2023/06/10 04:40:57;;;;;;;;;;;;;;;12.26;83.26;101909.56;5021374;28;19917;-74
2023/06/10 04:43:23;;;;;;;;;;;;;;;12.46;82.90;101913.50;5002813;28;19932;-74
2023/06/10 04:45:49;;;;;;;;;;;;;;;12.46;83.06;101908.13;5009631;28;19970;-74
2023/06/10 04:48:15;;;;;;;;;;;;;;;12.41;83.70;101910.78;5026218;28;19917;-73
2023/06/10 04:50:41;;;;;;;;;;;;;;;12.56;82.57;101900.19;5027717;28;19935;-74
2023/06/10 04:53:07;;;;;;;;;;;;;;;12.70;82.03;101909.44;5008558;28;20038;-74
2023/06/10 04:55:36;;;;;;;;;;;;;;;12.77;81.97;101901.97;5007760;28;19960;-74
2023/06/10 04:58:01;;;;;;;;;;;;;;;12.76;81.24;101913.00;5007683;28;19975;-74
2023/06/10 05:00:27;;;;;;;;;;;;;;;12.97;80.99;101909.41;5025977;28;19921;-73
2023/06/10 05:02:53;;;;;;;;;;;;;;;13.06;80.78;101907.03;5027320;28;19966;-75
2023/06/10 05:05:18;;;;;;;;;;;;;;;13.11;80.83;101909.78;5009587;28;19921;-76
2023/06/10 05:07:44;;;;;;;;;;;;;;;13.16;80.53;101904.44;5009090;28;19925;-75
2023/06/10 05:10:11;;;;;;;;;;;;;;;13.37;79.63;101908.91;5023301;28;19940;-75
2023/06/10 05:12:38;;;;;;;;;;;;;;;13.44;79.95;101910.56;5009227;28;20264;-74
2023/06/10 05:15:04;;;;;;;;;;;;;;;13.58;78.55;101909.84;5025181;28;19921;-75
2023/06/10 05:17:30;;;;;;;;;;;;;;;13.62;78.45;101912.84;5012674;28;19921;-72
2023/06/10 05:19:56;;;;;;;;;;;;;;;13.66;78.54;101906.66;5027922;28;19921;-75
2023/06/10 05:22:23;;;;;;;;;;;;;;;13.78;78.02;101911.00;5027624;28;20031;-74
2023/06/10 05:24:49;;;;;;;;;;;;;;;13.81;78.06;101910.47;5024925;28;19936;-75
2023/06/10 05:27:14;;;;;;;;;;;;;;;14.02;77.05;101912.19;5006923;28;19921;-72
2023/06/10 05:29:40;;;;;;;;;;;;;;;14.01;77.23;101912.44;5008529;28;20282;-74
2023/06/10 05:32:06;;;;;;;;;;;;;;;14.09;76.83;101920.00;5026456;28;19917;-74
2023/06/10 05:34:31;;;;;;;;;;;;;;;14.30;76.51;101905.53;5008493;28;19975;-75
2023/06/10 05:36:57;;;;;;;;;;;;;;;14.36;76.25;101919.81;5022371;28;19944;-75
2023/06/10 05:39:23;;;;;;;;;;;;;;;14.45;74.94;101919.03;5006878;28;19928;-74
2023/06/10 05:41:48;;;;;;;;;;;;;;;14.58;75.57;101909.66;4992345;28;19921;-75
2023/06/10 05:44:14;;;;;;;;;;;;;;;14.57;74.78;101912.63;5022341;28;19971;-75
2023/06/10 05:46:40;;;;;;;;;;;;;;;14.61;74.81;101913.69;5025392;28;20484;-75
2023/06/10 05:49:05;;;;;;;;;;;;;;;14.59;74.84;101908.59;4990279;28;19969;-76
2023/06/10 05:51:31;;;;;;;;;;;;;;;14.84;73.91;101901.59;5025499;28;20326;-74
2023/06/10 05:53:57;;;;;;;;;;;;;;;15.13;72.97;101901.84;4993809;28;19953;-74
2023/06/10 05:56:23;;;;;;;;;;;;;;;15.18;72.64;101899.97;5026059;28;20302;-75
2023/06/10 05:58:48;;;;;;;;;;;;;;;15.25;72.16;101899.69;5008129;28;19943;-73
2023/06/10 06:01:15;;;;;;;;;;;;;;;15.29;72.11;101896.13;5004638;28;19967;-76
2023/06/10 06:03:40;;;;;;;;;;;;;;;15.34;71.79;101900.72;5010884;28;20371;-74
2023/06/10 06:06:06;;;;;;;;;;;;;;;15.59;70.61;101890.97;5024657;28;20016;-73
2023/06/10 06:08:31;;;;;;;;;;;;;;;15.68;70.83;101897.44;5008161;28;20000;-74
2023/06/10 06:10:57;;;;;;;;;;;;;;;15.65;71.44;101888.00;5009799;28;19952;-75
2023/06/10 06:13:23;;;;;;;;;;;;;;;15.77;70.34;101887.66;5024227;28;19927;-74
2023/06/10 06:15:48;;;;;;;;;;;;;;;15.89;69.50;101885.44;5020685;28;20256;-75
2023/06/10 06:18:14;;;;;;;;;;;;;;;15.91;69.70;101888.66;5021751;28;19980;-75
2023/06/10 06:20:40;;;;;;;;;;;;;;;16.14;69.44;101889.94;5020394;28;19921;-74
2023/06/10 06:23:05;;;;;;;;;;;;;;;16.30;68.02;101885.22;5025521;28;19932;-74
2023/06/10 06:25:31;;;;;;;;;;;;;;;16.49;68.33;101885.38;5006538;28;20569;-74
2023/06/10 06:27:56;;;;;;;;;;;;;;;16.38;67.98;101885.44;5025785;28;20587;-75
2023/06/10 06:30:22;;;;;;;;;;;;;;;16.73;67.52;101889.03;5007344;28;20870;-75
2023/06/10 06:32:47;;;;;;;;;;;;;;;16.61;67.05;101888.53;5027361;28;19917;-74
2023/06/10 06:35:13;;;;;;;;;;;;;;;16.97;66.25;101889.06;5024527;28;19928;-76
2023/06/10 06:37:39;;;;;;;;;;;;;;;17.14;66.14;101897.59;5028787;28;19917;-74
2023/06/10 06:40:22;;;;;;;;;;;;;;;17.26;65.02;101882.84;5026139;28;19933;-75
2023/06/10 06:42:48;;;;;;;;;;;;;;;17.16;65.22;101881.84;5029385;28;19917;-74
2023/06/10 06:45:34;;;;;;;;;;;;;;;17.07;65.66;101891.69;5011317;28;19921;-74
2023/06/10 06:48:00;;;;;;;;;;;;;;;17.21;65.22;101891.03;4995067;28;19918;-74
2023/06/10 06:50:26;;;;;;;;;;;;;;;17.59;64.43;101900.88;5027353;28;20672;-74
2023/06/10 06:52:51;;;;;;;;;;;;;;;17.59;63.85;101892.75;5010758;28;19921;-74
2023/06/10 06:55:19;;;;;;;;;;;;;;;17.38;63.92;101888.66;5028523;28;20015;-75
2023/06/10 06:57:45;;;;;;;;;;;;;;;17.70;64.04;101905.09;5027140;28;20352;-75
2023/06/10 07:00:12;;;;;;;;;;;;;;;17.99;62.47;101891.47;5011999;28;19932;-76
2023/06/10 07:02:37;;;;;;;;;;;;;;;18.48;62.20;101897.56;5009873;28;19921;-72
2023/06/10 07:05:03;;;;;;;;;;;;;;;18.36;61.97;101889.91;5026887;28;19963;-75
2023/06/10 07:07:29;;;;;;;;;;;;;;;18.50;61.31;101895.38;5030392;28;19956;-74
2023/06/10 07:09:54;;;;;;;;;;;;;;;18.38;62.01;101892.31;5013134;28;19925;-74
2023/06/10 07:12:23;;;;;;;;;;;;;;;18.41;61.72;101897.13;5010807;28;20409;-73
2023/06/10 07:14:49;;;;;;;;;;;;;;;18.51;61.96;101888.84;4995880;28;20011;-74
2023/06/10 07:17:15;;;;;;;;;;;;;;;18.58;61.58;101896.63;5028260;28;19960;-74
2023/06/10 07:19:40;;;;;;;;;;;;;;;18.78;60.98;101899.84;5025778;28;19968;-73
2023/06/10 07:22:06;;;;;;;;;;;;;;;18.54;60.19;101907.22;5029117;28;20011;-72
2023/06/10 07:24:32;;;;;;;;;;;;;;;18.89;59.37;101900.44;5026247;28;19921;-74
2023/06/10 07:26:57;;;;;;;;;;;;;;;18.95;60.12;101907.41;5011916;28;19928;-74
2023/06/10 07:29:23;;;;;;;;;;;;;;;19.10;59.80;101909.03;5025922;28;19921;-75
2023/06/10 07:31:48;;;;;;;;;;;;;;;19.27;59.91;101916.63;5010776;28;20147;-75
2023/06/10 07:34:14;;;;;;;;;;;;;;;19.54;58.58;101902.28;5014190;28;19921;-74
2023/06/10 07:36:39;;;;;;;;;;;;;;;19.75;57.75;101911.66;4996291;28;19917;-73
2023/06/10 07:39:06;;;;;;;;;;;;;;;19.89;57.91;101904.28;5009623;28;19921;-74
2023/06/10 07:41:32;;;;;;;;;;;;;;;19.40;58.09;101896.84;5009046;28;20430;-74
2023/06/10 07:43:57;;;;;;;;;;;;;;;20.24;57.20;101898.38;5030832;28;19921;-76
2023/06/10 07:46:23;;;;;;;;;;;;;;;20.24;56.48;101906.53;5010874;28;19921;-75
2023/06/10 07:48:49;;;;;;;;;;;;;;;20.30;56.42;101903.38;5026925;28;20027;-75
2023/06/10 07:51:16;;;;;;;;;;;;;;;20.25;57.43;101900.78;5023947;28;19933;-72
2023/06/10 07:53:41;;;;;;;;;;;;;;;20.32;56.94;101893.03;5027298;28;19925;-73
2023/06/10 07:56:07;;;;;;;;;;;;;;;19.94;56.97;101897.13;5024235;28;19966;-75
2023/06/10 07:58:32;;;;;;;;;;;;;;;20.39;56.72;101893.41;5029681;28;19948;-77
2023/06/10 08:00:58;;;;;;;;;;;;;;;20.56;56.51;101895.47;5025766;28;19960;-74
2023/06/10 08:03:23;;;;;;;;;;;;;;;20.76;56.48;101890.66;5025860;28;19921;-74
2023/06/10 08:05:49;;;;;;;;;;;;;;;20.43;56.30;101897.09;5024382;28;19925;-76
2023/06/10 08:08:15;;;;;;;;;;;;;;;20.86;54.95;101896.66;4997604;28;19960;-75
2023/06/10 08:10:40;;;;;;;;;;;;;;;20.26;55.89;101902.41;5009794;28;20134;-75
2023/06/10 08:13:07;;;;;;;;;;;;;;;20.75;55.12;101897.22;4990865;28;19925;-77
2023/06/10 08:15:33;;;;;;;;;;;;;;;21.06;54.73;101898.00;5012341;28;19923;-77
2023/06/10 08:17:58;;;;;;;;;;;;;;;21.19;55.02;101907.22;5025593;28;19999;-76
2023/06/10 08:20:24;;;;;;;;;;;;;;;21.41;54.08;101903.69;5024718;28;19925;-73
2023/06/10 08:22:50;;;;;;;;;;;;;;;21.38;53.05;101902.38;5027982;28;19971;-74
2023/06/10 08:25:15;;;;;;;;;;;;;;;21.41;53.39;101909.94;5009227;28;19924;-74
2023/06/10 08:27:41;;;;;;;;;;;;;;;21.39;53.89;101901.25;5025897;28;19932;-75
2023/06/10 08:30:06;;;;;;;;;;;;;;;21.31;53.72;101901.22;5028387;28;19937;-75
2023/06/10 08:32:32;;;;;;;;;;;;;;;21.19;53.43;101901.78;5010383;28;20310;-74
2023/06/10 08:34:58;;;;;;;;;;;;;;;21.17;54.39;101902.09;5025162;28;20437;-73
2023/06/10 08:37:24;;;;;;;;;;;;;;;21.71;53.33;101897.34;5009993;28;19964;-76
2023/06/10 08:39:49;;;;;;;;;;;;;;;21.71;54.41;101902.00;5025492;28;19948;-75
2023/06/10 08:42:27;;;;;;;;;;;;;;;21.89;53.50;101906.38;5006155;28;19949;-73
2023/06/10 08:44:55;;;;;;;;;;;;;;;21.97;52.76;101893.88;4989610;28;19932;-75
2023/06/10 08:47:22;;;;;;;;;;;;;;;22.24;54.35;101904.53;5005715;28;20020;-76
2023/06/10 08:49:48;;;;;;;;;;;;;;;22.15;52.86;101902.91;5021936;28;19996;-75
2023/06/10 08:52:17;;;;;;;;;;;;;;;22.52;51.13;101896.81;5007705;28;19921;-76
2023/06/10 08:54:46;;;;;;;;;;;;;;;22.57;50.70;101895.84;5022838;28;19919;-74
2023/06/10 08:57:12;;;;;;;;;;;;;;;23.00;49.43;101895.78;5021627;28;19921;-74
2023/06/10 08:59:38;;;;;;;;;;;;;;;22.83;49.48;101893.88;5025050;28;19936;-75
2023/06/10 09:02:04;;;;;;;;;;;;;;;23.06;50.83;101897.22;5026239;28;19921;-77
2023/06/10 09:04:30;;;;;;;;;;;;;;;22.82;50.39;101889.53;4995191;28;19921;-73
2023/06/10 09:06:56;;;;;;;;;;;;;;;23.14;49.78;101890.91;5026083;28;20279;-76
2023/06/10 09:09:23;;;;;;;;;;;;;;;22.97;49.03;101896.47;5024990;28;20018;-76
2023/06/10 09:11:48;;;;;;;;;;;;;;;22.91;49.70;101889.56;5024368;28;19921;-75
2023/06/10 09:14:14;;;;;;;;;;;;;;;23.42;48.40;101883.09;5007939;28;19940;-73
2023/06/10 09:16:40;;;;;;;;;;;;;;;23.47;49.30;101890.31;5010118;28;19927;-72
2023/06/10 09:19:08;;;;;;;;;;;;;;;23.35;48.31;101877.34;5007600;28;19921;-74
2023/06/10 09:21:34;;;;;;;;;;;;;;;23.32;49.54;101872.53;5026203;28;19924;-73
2023/06/10 09:24:00;;;;;;;;;;;;;;;23.63;48.44;101885.09;5024007;28;20545;-74
2023/06/10 09:26:28;;;;;;;;;;;;;;;23.36;49.20;101883.59;5023579;28;19967;-74
2023/06/10 09:28:57;;;;;;;;;;;;;;;24.18;47.47;101873.97;5025028;28;19925;-74
2023/06/10 09:31:23;;;;;;;;;;;;;;;22.97;49.35;101871.88;5024225;28;19930;-73
2023/06/10 09:33:48;;;;;;;;;;;;;;;23.21;49.54;101873.22;5025729;28;20000;-74
2023/06/10 09:36:23;;;;;;;;;;;;;;;23.46;49.84;101869.56;5025382;28;19921;-74
2023/06/10 09:38:50;;;;;;;;;;;;;;;23.35;48.70;101871.06;5035511;28;20016;-73
2023/06/10 09:41:16;;;;;;;;;;;;;;;23.72;48.49;101868.66;5023222;28;19921;-75
2023/06/10 09:43:43;;;;;;;;;;;;;;;24.35;47.83;101853.06;5024636;28;19928;-73
2023/06/10 09:46:16;;;;;;;;;;;;;;;24.17;46.89;101858.66;5004504;28;20302;-77
2023/06/10 09:48:44;;;;;;;;;;;;;;;24.67;44.87;101865.16;5005434;28;19928;-74
2023/06/10 09:51:10;;;;;;;;;;;;;;;24.03;46.91;101874.53;5003641;28;19921;-77
2023/06/10 09:53:37;;;;;;;;;;;;;;;24.08;47.06;101874.34;5026191;28;19975;-75
2023/06/10 09:56:02;;;;;;;;;;;;;;;24.45;46.85;101869.06;5024614;28;19921;-71
2023/06/10 09:58:38;;;;;;;;;;;;;;;24.68;46.33;101873.03;5022488;28;19928;-78
2023/06/10 10:01:11;;;;;;;;;;;;;;;24.65;46.40;101864.69;5008322;28;19917;-75
2023/06/10 10:03:46;;;;;;;;;;;;;;;24.49;46.11;101870.78;5011161;28;19921;-74
2023/06/10 10:06:12;;;;;;;;;;;;;;;25.00;45.93;101868.66;5027397;28;20015;-73
2023/06/10 10:08:38;;;;;;;;;;;;;;;25.49;44.71;101876.13;5014049;28;19921;-75
2023/06/10 10:11:03;;;;;;;;;;;;;;;25.15;46.12;101869.94;5028158;28;19925;-76
2023/06/10 10:13:33;;;;;;;;;;;;;;;25.68;43.79;101873.59;5031354;28;20276;-75
2023/06/10 10:16:00;;;;;;;;;;;;;;;25.54;44.71;101875.91;5009085;28;20008;-75
2023/06/10 10:18:30;;;;;;;;;;;;;;;25.32;45.55;101869.72;5027154;28;19921;-75
2023/06/10 10:20:57;;;;;;;;;;;;;;;25.42;45.25;101867.69;5028005;28;19975;-74
2023/06/10 10:23:34;;;;;;;;;;;;;;;24.96;45.81;101866.94;5028240;28;20011;-75
2023/06/10 10:26:03;;;;;;;;;;;;;;;25.73;44.23;101867.09;5029218;28;19917;-74
2023/06/10 10:28:34;;;;;;;;;;;;;;;25.59;44.59;101872.91;5026177;28;20402;-74
2023/06/10 10:31:10;;;;;;;;;;;;;;;25.86;44.49;101863.19;5028020;28;20423;-75
2023/06/10 10:33:45;;;;;;;;;;;;;;;25.79;44.28;101860.22;4992839;28;19951;-75
2023/06/10 10:36:12;;;;;;;;;;;;;;;25.81;44.54;101858.75;5028581;28;19921;-73
2023/06/10 10:38:37;;;;;;;;;;;;;;;25.72;44.44;101854.50;5008874;28;19932;-76
2023/06/10 10:41:04;;;;;;;;;;;;;;;26.26;44.01;101852.19;5025352;28;19931;-75
2023/06/10 10:43:30;;;;;;;;;;;;;;;26.39;44.44;101867.50;5012700;28;19917;-73
2023/06/10 10:46:01;;;;;;;;;;;;;;;26.47;42.89;101862.19;5025503;28;19921;-74
2023/06/10 10:48:33;;;;;;;;;;;;;;;25.81;43.92;101858.75;5012165;28;19953;-74
2023/06/10 10:50:58;;;;;;;;;;;;;;;25.54;44.86;101860.25;5028288;28;19932;-75
2023/06/10 10:53:25;;;;;;;;;;;;;;;26.20;43.35;101858.28;5008422;28;19917;-75
2023/06/10 10:56:20;;;;;;;;;;;;;;;25.90;44.58;101860.56;4995008;28;19980;-76
2023/06/10 10:59:03;;;;;;;;;;;;;;;25.89;44.18;101853.47;5024514;28;19924;-76
2023/06/10 11:01:39;;;;;;;;;;;;;;;26.26;42.63;101849.44;5007429;28;19925;-73
2023/06/10 11:04:06;;;;;;;;;;;;;;;26.86;42.89;101847.53;5023631;28;19970;-74
2023/06/10 11:06:31;;;;;;;;;;;;;;;27.50;41.51;101845.56;5007825;28;19930;-75
2023/06/10 11:08:59;;;;;;;;;;;;;;;27.28;42.19;101851.72;5025994;28;19967;-74
2023/06/10 11:11:26;;;;;;;;;;;;;;;26.89;42.15;101852.34;5026069;28;19922;-74
2023/06/10 11:14:00;;;;;;;;;;;;;;;26.92;42.77;101850.84;5026507;28;19925;-76
2023/06/10 11:16:27;;;;;;;;;;;;;;;27.72;41.32;101855.13;5009363;28;19922;-73
2023/06/10 11:18:56;;;;;;;;;;;;;;;27.57;41.85;101853.19;4994625;28;20640;-77
2023/06/10 11:21:23;;;;;;;;;;;;;;;27.64;41.36;101853.38;5025370;28;20188;-76
2023/06/10 11:23:50;;;;;;;;;;;;;;;27.48;42.14;101856.94;5026782;28;19916;-76
2023/06/10 11:26:17;;;;;;;;;;;;;;;27.42;41.92;101852.84;5026690;28;19927;-74
2023/06/10 11:28:45;;;;;;;;;;;;;;;27.34;41.75;101856.59;5008241;28;19972;-75
2023/06/10 11:31:21;;;;;;;;;;;;;;;27.44;42.00;101844.28;5023603;28;19926;-77
2023/06/10 11:33:47;;;;;;;;;;;;;;;27.15;42.83;101853.78;5009858;28;19952;-76
2023/06/10 11:36:12;;;;;;;;;;;;;;;27.51;41.96;101849.13;5008853;28;19990;-76
2023/06/10 11:38:38;;;;;;;;;;;;;;;27.88;41.12;101842.09;5024103;28;20884;-75
2023/06/10 11:41:04;;;;;;;;;;;;;;;27.87;41.16;101839.72;5025520;28;19921;-76
2023/06/10 11:43:29;;;;;;;;;;;;;;;27.97;41.28;101842.69;4992825;28;19921;-75
2023/06/10 11:45:56;;;;;;;;;;;;;;;27.78;42.56;101853.69;5008805;28;19975;-76
2023/06/10 11:48:21;;;;;;;;;;;;;;;28.01;42.64;101840.00;5025552;28;19932;-74
2023/06/10 11:50:47;;;;;;;;;;;;;;;28.13;41.04;101841.84;4992971;28;20337;-75
2023/06/10 11:53:13;;;;;;;;;;;;;;;28.14;40.26;101844.22;5027300;28;19921;-75
2023/06/10 11:55:48;;;;;;;;;;;;;;;28.40;40.61;101840.81;5026296;28;20458;-75
2023/06/10 11:58:21;;;;;;;;;;;;;;;28.59;41.62;101836.41;5006796;28;19927;-75
2023/06/10 12:00:48;;;;;;;;;;;;;;;28.79;39.98;101837.97;5022356;28;19925;-72
2023/06/10 12:03:13;;;;;;;;;;;;;;;28.59;39.76;101830.91;5025433;28;20302;-75
2023/06/10 12:05:39;;;;;;;;;;;;;;;28.69;39.42;101830.31;5011389;28;19921;-76
2023/06/10 12:08:11;;;;;;;;;;;;;;;29.12;39.10;101820.00;5028633;28;19918;-72
2023/06/10 12:10:43;;;;;;;;;;;;;;;28.58;40.50;101832.06;5026806;28;19978;-73
2023/06/10 12:13:09;;;;;;;;;;;;;;;28.34;40.66;101831.25;5025261;28;19927;-74
2023/06/10 12:15:37;;;;;;;;;;;;;;;29.09;39.75;101835.34;5024228;28;19999;-76
2023/06/10 12:18:03;;;;;;;;;;;;;;;29.03;39.12;101834.84;5026919;28;20016;-73
2023/06/10 12:20:29;;;;;;;;;;;;;;;29.43;37.70;101825.22;5007736;28;20007;-76
2023/06/10 12:23:21;;;;;;;;;;;;;;;29.44;38.90;101826.00;5023177;28;20011;-76
2023/06/10 12:25:51;;;;;;;;;;;;;;;29.18;39.04;101835.88;5009459;28;19921;-75
2023/06/10 12:28:19;;;;;;;;;;;;;;;28.82;39.34;101820.69;5010440;28;20341;-74
2023/06/10 12:30:44;;;;;;;;;;;;;;;29.19;39.67;101809.09;5025358;28;20068;-73
2023/06/10 12:33:20;;;;;;;;;;;;;;;29.12;39.51;101817.25;5026755;28;20016;-75
2023/06/10 12:36:11;;;;;;;;;;;;;;;29.98;37.57;101814.53;5025041;28;19932;-75
2023/06/10 12:38:38;;;;;;;;;;;;;;;30.45;36.91;101802.81;5022892;28;19921;-75
2023/06/10 12:41:04;;;;;;;;;;;;;;;30.61;36.79;101804.53;5025149;28;19925;-75
2023/06/10 12:43:31;;;;;;;;;;;;;;;30.18;37.11;101804.91;5024790;28;19921;-76
2023/06/10 12:46:08;;;;;;;;;;;;;;;29.78;36.22;101802.03;4992691;28;19927;-75
2023/06/10 12:48:34;;;;;;;;;;;;;;;30.07;35.91;101801.19;4991872;28;19925;-76
2023/06/10 12:51:00;;;;;;;;;;;;;;;30.33;35.93;101788.47;5023748;28;19932;-76
2023/06/10 12:53:28;;;;;;;;;;;;;;;30.05;36.13;101791.72;5025282;28;19948;-75
2023/06/10 12:55:54;;;;;;;;;;;;;;;30.49;35.67;101791.81;5008999;28;19921;-77